sensor_id;sensor_type;location;lat;lon;timestamp;P1;durP1;ratioP1;P2;durP2;ratioP2
34952;SDS011;21164;54.378;10.202;2022-08-04T00:06:58;12.40;;;7.57;;
34952;SDS011;21164;54.378;10.202;2022-08-04T00:09:38;13.63;;;7.72;;
34952;SDS011;21164;54.378;10.202;2022-08-04T00:12:13;12.15;;;9.00;;
34952;SDS011;21164;54.378;10.202;2022-08-04T00:14:46;18.38;;;10.18;;
34952;SDS011;21164;54.378;10.202;2022-08-04T00:17:13;13.68;;;10.45;;
34952;SDS011;21164;54.378;10.202;2022-08-04T00:19:42;14.48;;;10.60;;
34952;SDS011;21164;54.378;10.202;2022-08-04T00:22:11;18.30;;;10.35;;
34952;SDS011;21164;54.378;10.202;2022-08-04T00:24:39;13.50;;;9.93;;
34952;SDS011;21164;54.378;10.202;2022-08-04T00:27:06;18.10;;;10.05;;
34952;SDS011;21164;54.378;10.202;2022-08-04T00:29:32;19.50;;;11.23;;
34952;SDS011;21164;54.378;10.202;2022-08-04T00:31:59;13.55;;;10.20;;
34952;SDS011;21164;54.378;10.202;2022-08-04T00:34:27;18.83;;;11.40;;
34952;SDS011;21164;54.378;10.202;2022-08-04T00:36:55;17.55;;;11.05;;
34952;SDS011;21164;54.378;10.202;2022-08-04T00:39:22;19.45;;;11.75;;
34952;SDS011;21164;54.378;10.202;2022-08-04T00:52:31;20.98;;;12.07;;
34952;SDS011;21164;54.378;10.202;2022-08-04T00:55:22;18.52;;;11.93;;
34952;SDS011;21164;54.378;10.202;2022-08-04T01:00:45;17.88;;;11.18;;
34952;SDS011;21164;54.378;10.202;2022-08-04T01:03:23;20.55;;;11.15;;
34952;SDS011;21164;54.378;10.202;2022-08-04T01:08:48;18.67;;;11.50;;
34952;SDS011;21164;54.378;10.202;2022-08-04T01:16:48;18.02;;;10.82;;
34952;SDS011;21164;54.378;10.202;2022-08-04T01:29:49;19.10;;;10.85;;
34952;SDS011;21164;54.378;10.202;2022-08-04T01:32:20;16.77;;;11.13;;
34952;SDS011;21164;54.378;10.202;2022-08-04T01:37:47;22.52;;;11.20;;
34952;SDS011;21164;54.378;10.202;2022-08-04T01:40:31;24.85;;;11.43;;
34952;SDS011;21164;54.378;10.202;2022-08-04T01:42:59;25.45;;;12.98;;
34952;SDS011;21164;54.378;10.202;2022-08-04T01:45:27;20.95;;;11.10;;
34952;SDS011;21164;54.378;10.202;2022-08-04T01:47:55;21.25;;;11.73;;
34952;SDS011;21164;54.378;10.202;2022-08-04T01:50:21;22.48;;;12.77;;
34952;SDS011;21164;54.378;10.202;2022-08-04T01:52:49;18.90;;;12.48;;
34952;SDS011;21164;54.378;10.202;2022-08-04T01:55:17;20.15;;;11.77;;
34952;SDS011;21164;54.378;10.202;2022-08-04T02:02:37;19.85;;;10.80;;
34952;SDS011;21164;54.378;10.202;2022-08-04T02:05:03;21.15;;;11.60;;
34952;SDS011;21164;54.378;10.202;2022-08-04T02:10:20;15.95;;;10.63;;
34952;SDS011;21164;54.378;10.202;2022-08-04T02:20:56;15.20;;;11.48;;
34952;SDS011;21164;54.378;10.202;2022-08-04T02:23:37;19.23;;;11.40;;
34952;SDS011;21164;54.378;10.202;2022-08-04T02:26:10;19.02;;;13.02;;
34952;SDS011;21164;54.378;10.202;2022-08-04T02:31:32;19.20;;;11.93;;
34952;SDS011;21164;54.378;10.202;2022-08-04T02:36:56;20.70;;;12.52;;
34952;SDS011;21164;54.378;10.202;2022-08-04T02:39:24;16.23;;;10.75;;
34952;SDS011;21164;54.378;10.202;2022-08-04T02:41:53;19.63;;;12.10;;
34952;SDS011;21164;54.378;10.202;2022-08-04T02:44:21;18.10;;;11.30;;
34952;SDS011;21164;54.378;10.202;2022-08-04T02:46:50;19.48;;;11.98;;
34952;SDS011;21164;54.378;10.202;2022-08-04T02:49:16;15.48;;;10.65;;
34952;SDS011;21164;54.378;10.202;2022-08-04T02:51:49;13.68;;;9.60;;
34952;SDS011;21164;54.378;10.202;2022-08-04T02:54:16;14.15;;;9.90;;
34952;SDS011;21164;54.378;10.202;2022-08-04T02:56:44;15.32;;;10.73;;
34952;SDS011;21164;54.378;10.202;2022-08-04T02:59:11;12.60;;;9.40;;
34952;SDS011;21164;54.378;10.202;2022-08-04T03:01:38;15.95;;;10.23;;
34952;SDS011;21164;54.378;10.202;2022-08-04T03:17:38;18.27;;;10.32;;
34952;SDS011;21164;54.378;10.202;2022-08-04T03:39:48;17.85;;;10.57;;
34952;SDS011;21164;54.378;10.202;2022-08-04T03:47:18;16.88;;;11.00;;
34952;SDS011;21164;54.378;10.202;2022-08-04T03:52:54;15.73;;;9.40;;
34952;SDS011;21164;54.378;10.202;2022-08-04T03:58:58;13.38;;;9.05;;
34952;SDS011;21164;54.378;10.202;2022-08-04T04:10:29;12.30;;;8.05;;
34952;SDS011;21164;54.378;10.202;2022-08-04T04:35:47;17.45;;;6.10;;
34952;SDS011;21164;54.378;10.202;2022-08-04T04:47:13;17.27;;;5.90;;
34952;SDS011;21164;54.378;10.202;2022-08-04T04:55:09;9.27;;;4.82;;
34952;SDS011;21164;54.378;10.202;2022-08-04T04:57:51;14.50;;;4.82;;
34952;SDS011;21164;54.378;10.202;2022-08-04T05:00:21;8.32;;;4.93;;
34952;SDS011;21164;54.378;10.202;2022-08-04T05:08:42;11.13;;;4.57;;
34952;SDS011;21164;54.378;10.202;2022-08-04T05:14:05;13.65;;;5.50;;
34952;SDS011;21164;54.378;10.202;2022-08-04T05:16:49;12.70;;;4.68;;
34952;SDS011;21164;54.378;10.202;2022-08-04T05:21:59;10.23;;;4.57;;
34952;SDS011;21164;54.378;10.202;2022-08-04T05:24:45;11.30;;;4.32;;
34952;SDS011;21164;54.378;10.202;2022-08-04T05:27:14;8.82;;;4.93;;
34952;SDS011;21164;54.378;10.202;2022-08-04T05:29:55;13.10;;;4.10;;
34952;SDS011;21164;54.378;10.202;2022-08-04T05:32:27;9.82;;;3.78;;
34952;SDS011;21164;54.378;10.202;2022-08-04T05:34:57;12.13;;;4.03;;
34952;SDS011;21164;54.378;10.202;2022-08-04T05:37:28;10.70;;;4.22;;
34952;SDS011;21164;54.378;10.202;2022-08-04T05:39:56;13.77;;;4.25;;
34952;SDS011;21164;54.378;10.202;2022-08-04T05:42:24;11.98;;;3.85;;
34952;SDS011;21164;54.378;10.202;2022-08-04T05:44:51;10.77;;;3.83;;
34952;SDS011;21164;54.378;10.202;2022-08-04T05:47:18;7.85;;;3.97;;
34952;SDS011;21164;54.378;10.202;2022-08-04T05:49:47;13.02;;;4.22;;
34952;SDS011;21164;54.378;10.202;2022-08-04T05:52:13;8.65;;;3.72;;
34952;SDS011;21164;54.378;10.202;2022-08-04T05:57:06;8.13;;;3.40;;
34952;SDS011;21164;54.378;10.202;2022-08-04T05:59:33;7.22;;;3.83;;
34952;SDS011;21164;54.378;10.202;2022-08-04T06:02:02;15.63;;;3.67;;
34952;SDS011;21164;54.378;10.202;2022-08-04T06:04:37;17.23;;;4.15;;
34952;SDS011;21164;54.378;10.202;2022-08-04T06:07:04;8.48;;;3.58;;
34952;SDS011;21164;54.378;10.202;2022-08-04T06:09:30;14.45;;;3.58;;
34952;SDS011;21164;54.378;10.202;2022-08-04T06:14:26;9.77;;;3.20;;
34952;SDS011;21164;54.378;10.202;2022-08-04T06:17:07;13.32;;;3.50;;
34952;SDS011;21164;54.378;10.202;2022-08-04T06:19:34;10.30;;;3.75;;
34952;SDS011;21164;54.378;10.202;2022-08-04T06:22:02;9.90;;;3.10;;
34952;SDS011;21164;54.378;10.202;2022-08-04T06:24:28;11.80;;;3.55;;
34952;SDS011;21164;54.378;10.202;2022-08-04T06:26:56;7.88;;;3.08;;
34952;SDS011;21164;54.378;10.202;2022-08-04T06:29:23;9.80;;;3.42;;
34952;SDS011;21164;54.378;10.202;2022-08-04T06:32:07;12.68;;;3.67;;
34952;SDS011;21164;54.378;10.202;2022-08-04T06:34:40;11.65;;;3.35;;
34952;SDS011;21164;54.378;10.202;2022-08-04T06:37:07;10.38;;;3.30;;
34952;SDS011;21164;54.378;10.202;2022-08-04T06:39:34;6.95;;;3.40;;
34952;SDS011;21164;54.378;10.202;2022-08-04T06:42:00;10.45;;;3.35;;
34952;SDS011;21164;54.378;10.202;2022-08-04T06:44:28;9.20;;;2.90;;
34952;SDS011;21164;54.378;10.202;2022-08-04T06:46:54;9.07;;;3.22;;
34952;SDS011;21164;54.378;10.202;2022-08-04T06:49:22;16.83;;;3.67;;
34952;SDS011;21164;54.378;10.202;2022-08-04T06:51:50;6.63;;;3.20;;
34952;SDS011;21164;54.378;10.202;2022-08-04T06:54:17;6.28;;;2.95;;
34952;SDS011;21164;54.378;10.202;2022-08-04T06:59:10;8.50;;;2.95;;
34952;SDS011;21164;54.378;10.202;2022-08-04T07:01:36;7.28;;;2.80;;
34952;SDS011;21164;54.378;10.202;2022-08-04T07:04:04;5.97;;;2.97;;
34952;SDS011;21164;54.378;10.202;2022-08-04T07:06:30;9.68;;;2.97;;
34952;SDS011;21164;54.378;10.202;2022-08-04T07:08:56;6.95;;;3.15;;
34952;SDS011;21164;54.378;10.202;2022-08-04T07:11:23;10.52;;;2.80;;
34952;SDS011;21164;54.378;10.202;2022-08-04T07:13:50;9.90;;;3.45;;
34952;SDS011;21164;54.378;10.202;2022-08-04T07:16:16;10.32;;;3.10;;
34952;SDS011;21164;54.378;10.202;2022-08-04T07:18:44;14.02;;;3.15;;
34952;SDS011;21164;54.378;10.202;2022-08-04T07:23:42;6.10;;;2.38;;
34952;SDS011;21164;54.378;10.202;2022-08-04T07:26:09;7.80;;;2.83;;
34952;SDS011;21164;54.378;10.202;2022-08-04T07:31:01;9.57;;;2.63;;
34952;SDS011;21164;54.378;10.202;2022-08-04T07:33:27;8.00;;;2.97;;
34952;SDS011;21164;54.378;10.202;2022-08-04T07:35:54;10.90;;;3.40;;
34952;SDS011;21164;54.378;10.202;2022-08-04T07:38:20;8.70;;;2.70;;
34952;SDS011;21164;54.378;10.202;2022-08-04T07:43:15;9.35;;;2.60;;
34952;SDS011;21164;54.378;10.202;2022-08-04T07:45:41;8.18;;;2.40;;
34952;SDS011;21164;54.378;10.202;2022-08-04T07:48:08;6.82;;;2.80;;
34952;SDS011;21164;54.378;10.202;2022-08-04T07:50:34;11.32;;;3.00;;
34952;SDS011;21164;54.378;10.202;2022-08-04T07:53:02;8.60;;;3.17;;
34952;SDS011;21164;54.378;10.202;2022-08-04T07:55:28;5.80;;;2.60;;
34952;SDS011;21164;54.378;10.202;2022-08-04T07:57:54;10.65;;;3.30;;
34952;SDS011;21164;54.378;10.202;2022-08-04T08:00:20;7.70;;;2.55;;
34952;SDS011;21164;54.378;10.202;2022-08-04T08:05:13;11.88;;;3.05;;
34952;SDS011;21164;54.378;10.202;2022-08-04T08:07:43;9.57;;;2.75;;
34952;SDS011;21164;54.378;10.202;2022-08-04T08:10:13;9.13;;;2.97;;
34952;SDS011;21164;54.378;10.202;2022-08-04T08:12:40;12.30;;;3.00;;
34952;SDS011;21164;54.378;10.202;2022-08-04T08:15:07;9.45;;;2.60;;
34952;SDS011;21164;54.378;10.202;2022-08-04T08:17:36;13.70;;;3.83;;
34952;SDS011;21164;54.378;10.202;2022-08-04T08:20:02;11.30;;;2.55;;
34952;SDS011;21164;54.378;10.202;2022-08-04T08:22:28;10.60;;;2.85;;
34952;SDS011;21164;54.378;10.202;2022-08-04T08:24:55;10.75;;;2.50;;
34952;SDS011;21164;54.378;10.202;2022-08-04T08:27:21;9.20;;;3.13;;
34952;SDS011;21164;54.378;10.202;2022-08-04T08:29:47;11.57;;;2.80;;
34952;SDS011;21164;54.378;10.202;2022-08-04T08:32:13;9.95;;;2.63;;
34952;SDS011;21164;54.378;10.202;2022-08-04T08:34:40;10.68;;;3.03;;
34952;SDS011;21164;54.378;10.202;2022-08-04T08:48:27;10.95;;;2.35;;
34952;SDS011;21164;54.378;10.202;2022-08-04T08:51:13;9.45;;;2.20;;
34952;SDS011;21164;54.378;10.202;2022-08-04T09:02:45;12.00;;;2.75;;
34952;SDS011;21164;54.378;10.202;2022-08-04T09:05:35;7.75;;;1.95;;
34952;SDS011;21164;54.378;10.202;2022-08-04T09:08:09;9.35;;;2.35;;
34952;SDS011;21164;54.378;10.202;2022-08-04T09:10:47;8.73;;;2.17;;
34952;SDS011;21164;54.378;10.202;2022-08-04T09:13:32;8.02;;;2.45;;
34952;SDS011;21164;54.378;10.202;2022-08-04T09:16:05;9.65;;;2.10;;
34952;SDS011;21164;54.378;10.202;2022-08-04T09:21:32;8.10;;;1.70;;
34952;SDS011;21164;54.378;10.202;2022-08-04T09:24:07;5.50;;;1.98;;
34952;SDS011;21164;54.378;10.202;2022-08-04T09:26:45;5.68;;;1.50;;
34952;SDS011;21164;54.378;10.202;2022-08-04T09:29:20;4.57;;;1.50;;
34952;SDS011;21164;54.378;10.202;2022-08-04T09:32:03;7.38;;;1.70;;
34952;SDS011;21164;54.378;10.202;2022-08-04T09:37:53;2.97;;;1.30;;
34952;SDS011;21164;54.378;10.202;2022-08-04T09:40:25;4.00;;;1.60;;
34952;SDS011;21164;54.378;10.202;2022-08-04T09:46:08;4.63;;;1.20;;
34952;SDS011;21164;54.378;10.202;2022-08-04T09:56:57;4.28;;;1.52;;
34952;SDS011;21164;54.378;10.202;2022-08-04T10:00:06;5.18;;;1.30;;
34952;SDS011;21164;54.378;10.202;2022-08-04T10:02:33;6.78;;;1.33;;
34952;SDS011;21164;54.378;10.202;2022-08-04T10:05:02;9.02;;;1.60;;
34952;SDS011;21164;54.378;10.202;2022-08-04T10:16:06;4.57;;;1.40;;
34952;SDS011;21164;54.378;10.202;2022-08-04T10:18:49;5.45;;;1.40;;
34952;SDS011;21164;54.378;10.202;2022-08-04T10:29:09;5.85;;;1.30;;
34952;SDS011;21164;54.378;10.202;2022-08-04T10:31:42;5.22;;;1.40;;
34952;SDS011;21164;54.378;10.202;2022-08-04T10:34:13;4.65;;;1.55;;
34952;SDS011;21164;54.378;10.202;2022-08-04T10:39:42;6.63;;;1.35;;
34952;SDS011;21164;54.378;10.202;2022-08-04T10:42:36;4.32;;;1.42;;
34952;SDS011;21164;54.378;10.202;2022-08-04T10:45:15;8.02;;;1.50;;
34952;SDS011;21164;54.378;10.202;2022-08-04T10:47:48;7.10;;;1.98;;
34952;SDS011;21164;54.378;10.202;2022-08-04T10:50:29;3.72;;;1.00;;
34952;SDS011;21164;54.378;10.202;2022-08-04T10:53:02;4.05;;;1.10;;
34952;SDS011;21164;54.378;10.202;2022-08-04T10:55:41;4.45;;;1.10;;
34952;SDS011;21164;54.378;10.202;2022-08-04T10:58:10;3.10;;;1.20;;
34952;SDS011;21164;54.378;10.202;2022-08-04T11:00:42;4.30;;;1.30;;
34952;SDS011;21164;54.378;10.202;2022-08-04T11:03:19;4.22;;;1.40;;
34952;SDS011;21164;54.378;10.202;2022-08-04T11:05:52;5.00;;;1.48;;
34952;SDS011;21164;54.378;10.202;2022-08-04T11:08:43;4.25;;;1.33;;
34952;SDS011;21164;54.378;10.202;2022-08-04T11:13:43;3.88;;;1.35;;
34952;SDS011;21164;54.378;10.202;2022-08-04T11:16:14;6.28;;;1.58;;
34952;SDS011;21164;54.378;10.202;2022-08-04T11:18:57;4.78;;;1.70;;
34952;SDS011;21164;54.378;10.202;2022-08-04T11:21:57;5.82;;;1.80;;
34952;SDS011;21164;54.378;10.202;2022-08-04T11:27:14;6.80;;;1.60;;
34952;SDS011;21164;54.378;10.202;2022-08-04T11:32:44;5.60;;;1.60;;
34952;SDS011;21164;54.378;10.202;2022-08-04T11:35:21;3.95;;;1.90;;
34952;SDS011;21164;54.378;10.202;2022-08-04T11:37:57;5.70;;;1.80;;
34952;SDS011;21164;54.378;10.202;2022-08-04T11:40:38;3.45;;;1.65;;
34952;SDS011;21164;54.378;10.202;2022-08-04T11:43:11;4.25;;;1.55;;
34952;SDS011;21164;54.378;10.202;2022-08-04T11:45:42;2.80;;;1.55;;
34952;SDS011;21164;54.378;10.202;2022-08-04T11:48:15;3.35;;;1.30;;
34952;SDS011;21164;54.378;10.202;2022-08-04T11:50:53;3.90;;;1.30;;
34952;SDS011;21164;54.378;10.202;2022-08-04T11:53:22;4.30;;;1.40;;
34952;SDS011;21164;54.378;10.202;2022-08-04T11:55:49;2.70;;;1.35;;
34952;SDS011;21164;54.378;10.202;2022-08-04T11:58:19;6.10;;;1.40;;
34952;SDS011;21164;54.378;10.202;2022-08-04T12:03:26;4.80;;;1.67;;
34952;SDS011;21164;54.378;10.202;2022-08-04T12:16:44;4.35;;;1.77;;
34952;SDS011;21164;54.378;10.202;2022-08-04T12:19:22;5.20;;;1.80;;
34952;SDS011;21164;54.378;10.202;2022-08-04T12:21:53;7.47;;;2.80;;
34952;SDS011;21164;54.378;10.202;2022-08-04T12:24:46;4.53;;;2.47;;
34952;SDS011;21164;54.378;10.202;2022-08-04T12:27:34;5.13;;;2.65;;
34952;SDS011;21164;54.378;10.202;2022-08-04T12:30:10;3.83;;;2.50;;
34952;SDS011;21164;54.378;10.202;2022-08-04T12:38:02;5.15;;;2.22;;
34952;SDS011;21164;54.378;10.202;2022-08-04T12:40:44;4.93;;;2.28;;
34952;SDS011;21164;54.378;10.202;2022-08-04T12:43:19;4.88;;;2.97;;
34952;SDS011;21164;54.378;10.202;2022-08-04T12:45:50;3.53;;;2.60;;
34952;SDS011;21164;54.378;10.202;2022-08-04T12:48:26;4.97;;;2.50;;
34952;SDS011;21164;54.378;10.202;2022-08-04T12:50:54;5.93;;;2.40;;
34952;SDS011;21164;54.378;10.202;2022-08-04T12:53:22;4.75;;;2.70;;
34952;SDS011;21164;54.378;10.202;2022-08-04T12:55:52;5.53;;;2.50;;
34952;SDS011;21164;54.378;10.202;2022-08-04T12:58:21;7.97;;;2.80;;
34952;SDS011;21164;54.378;10.202;2022-08-04T13:00:55;4.45;;;2.83;;
34952;SDS011;21164;54.378;10.202;2022-08-04T13:03:35;5.15;;;2.70;;
34952;SDS011;21164;54.378;10.202;2022-08-04T13:06:16;3.55;;;2.58;;
34952;SDS011;21164;54.378;10.202;2022-08-04T13:08:52;3.45;;;2.58;;
34952;SDS011;21164;54.378;10.202;2022-08-04T13:11:19;4.93;;;2.55;;
34952;SDS011;21164;54.378;10.202;2022-08-04T13:13:46;4.65;;;2.45;;
34952;SDS011;21164;54.378;10.202;2022-08-04T13:16:18;4.63;;;2.63;;
34952;SDS011;21164;54.378;10.202;2022-08-04T13:18:53;6.97;;;2.53;;
34952;SDS011;21164;54.378;10.202;2022-08-04T13:21:21;8.30;;;2.70;;
34952;SDS011;21164;54.378;10.202;2022-08-04T13:23:50;8.95;;;2.75;;
34952;SDS011;21164;54.378;10.202;2022-08-04T13:26:17;5.97;;;2.83;;
34952;SDS011;21164;54.378;10.202;2022-08-04T13:28:46;6.20;;;2.80;;
34952;SDS011;21164;54.378;10.202;2022-08-04T13:31:13;4.43;;;2.80;;
34952;SDS011;21164;54.378;10.202;2022-08-04T13:33:42;5.78;;;2.70;;
34952;SDS011;21164;54.378;10.202;2022-08-04T13:36:09;5.45;;;2.85;;
34952;SDS011;21164;54.378;10.202;2022-08-04T13:38:37;7.57;;;2.88;;
34952;SDS011;21164;54.378;10.202;2022-08-04T13:41:05;3.88;;;2.75;;
34952;SDS011;21164;54.378;10.202;2022-08-04T13:43:33;5.05;;;2.72;;
34952;SDS011;21164;54.378;10.202;2022-08-04T13:46:07;6.43;;;2.80;;
34952;SDS011;21164;54.378;10.202;2022-08-04T13:48:38;4.78;;;2.85;;
34952;SDS011;21164;54.378;10.202;2022-08-04T13:51:06;3.55;;;2.85;;
34952;SDS011;21164;54.378;10.202;2022-08-04T13:53:35;3.75;;;2.80;;
34952;SDS011;21164;54.378;10.202;2022-08-04T13:56:03;3.67;;;2.90;;
34952;SDS011;21164;54.378;10.202;2022-08-04T13:58:32;7.20;;;2.95;;
34952;SDS011;21164;54.378;10.202;2022-08-04T14:01:02;4.60;;;2.88;;
34952;SDS011;21164;54.378;10.202;2022-08-04T14:08:57;5.85;;;3.00;;
34952;SDS011;21164;54.378;10.202;2022-08-04T14:11:32;4.07;;;3.10;;
34952;SDS011;21164;54.378;10.202;2022-08-04T14:14:00;5.13;;;2.83;;
34952;SDS011;21164;54.378;10.202;2022-08-04T14:16:53;4.60;;;2.58;;
34952;SDS011;21164;54.378;10.202;2022-08-04T14:24:57;6.18;;;2.90;;
34952;SDS011;21164;54.378;10.202;2022-08-04T14:27:30;4.88;;;2.88;;
34952;SDS011;21164;54.378;10.202;2022-08-04T14:32:56;8.45;;;3.33;;
34952;SDS011;21164;54.378;10.202;2022-08-04T14:35:23;5.78;;;2.80;;
34952;SDS011;21164;54.378;10.202;2022-08-04T14:37:55;7.18;;;2.90;;
34952;SDS011;21164;54.378;10.202;2022-08-04T14:40:23;3.95;;;3.20;;
34952;SDS011;21164;54.378;10.202;2022-08-04T14:42:51;6.50;;;3.30;;
34952;SDS011;21164;54.378;10.202;2022-08-04T14:45:16;8.25;;;3.15;;
34952;SDS011;21164;54.378;10.202;2022-08-04T14:47:43;7.25;;;3.67;;
34952;SDS011;21164;54.378;10.202;2022-08-04T14:50:10;11.20;;;3.65;;
34952;SDS011;21164;54.378;10.202;2022-08-04T14:52:38;8.50;;;3.58;;
34952;SDS011;21164;54.378;10.202;2022-08-04T14:55:14;12.93;;;3.72;;
34952;SDS011;21164;54.378;10.202;2022-08-04T14:57:41;9.18;;;3.38;;
34952;SDS011;21164;54.378;10.202;2022-08-04T15:00:07;11.20;;;3.72;;
34952;SDS011;21164;54.378;10.202;2022-08-04T15:02:33;10.73;;;4.70;;
34952;SDS011;21164;54.378;10.202;2022-08-04T15:05:00;11.63;;;4.03;;
34952;SDS011;21164;54.378;10.202;2022-08-04T15:07:28;9.82;;;3.65;;
34952;SDS011;21164;54.378;10.202;2022-08-04T15:09:54;6.05;;;3.55;;
34952;SDS011;21164;54.378;10.202;2022-08-04T15:12:20;10.43;;;3.58;;
34952;SDS011;21164;54.378;10.202;2022-08-04T15:14:46;12.50;;;4.35;;
34952;SDS011;21164;54.378;10.202;2022-08-04T15:17:11;10.00;;;3.88;;
34952;SDS011;21164;54.378;10.202;2022-08-04T15:19:37;11.45;;;4.10;;
34952;SDS011;21164;54.378;10.202;2022-08-04T15:22:03;12.80;;;3.85;;
34952;SDS011;21164;54.378;10.202;2022-08-04T15:24:29;13.32;;;3.63;;
34952;SDS011;21164;54.378;10.202;2022-08-04T15:26:55;12.77;;;4.45;;
34952;SDS011;21164;54.378;10.202;2022-08-04T15:29:27;11.32;;;3.63;;
34952;SDS011;21164;54.378;10.202;2022-08-04T15:32:02;10.77;;;3.67;;
34952;SDS011;21164;54.378;10.202;2022-08-04T15:37:36;18.40;;;4.38;;
34952;SDS011;21164;54.378;10.202;2022-08-04T15:40:17;11.60;;;3.60;;
34952;SDS011;21164;54.378;10.202;2022-08-04T15:42:47;12.75;;;3.53;;
34952;SDS011;21164;54.378;10.202;2022-08-04T15:45:23;9.18;;;3.83;;
34952;SDS011;21164;54.378;10.202;2022-08-04T15:48:07;9.32;;;3.70;;
34952;SDS011;21164;54.378;10.202;2022-08-04T15:53:31;10.20;;;3.20;;
34952;SDS011;21164;54.378;10.202;2022-08-04T15:58:52;11.07;;;3.53;;
34952;SDS011;21164;54.378;10.202;2022-08-04T16:01:21;11.75;;;4.00;;
34952;SDS011;21164;54.378;10.202;2022-08-04T16:03:51;13.50;;;3.70;;
34952;SDS011;21164;54.378;10.202;2022-08-04T16:11:57;8.48;;;3.70;;
34952;SDS011;21164;54.378;10.202;2022-08-04T16:22:12;9.40;;;3.47;;
34952;SDS011;21164;54.378;10.202;2022-08-04T16:24:59;8.23;;;3.42;;
34952;SDS011;21164;54.378;10.202;2022-08-04T16:27:35;8.50;;;3.80;;
34952;SDS011;21164;54.378;10.202;2022-08-04T16:30:09;11.10;;;4.22;;
34952;SDS011;21164;54.378;10.202;2022-08-04T16:32:46;10.30;;;4.55;;
34952;SDS011;21164;54.378;10.202;2022-08-04T16:35:23;11.90;;;5.88;;
34952;SDS011;21164;54.378;10.202;2022-08-04T16:37:54;9.45;;;3.70;;
34952;SDS011;21164;54.378;10.202;2022-08-04T16:40:37;7.60;;;3.97;;
34952;SDS011;21164;54.378;10.202;2022-08-04T16:43:13;9.70;;;4.07;;
34952;SDS011;21164;54.378;10.202;2022-08-04T16:48:18;12.88;;;3.88;;
34952;SDS011;21164;54.378;10.202;2022-08-04T16:53:22;7.72;;;3.50;;
34952;SDS011;21164;54.378;10.202;2022-08-04T16:55:53;10.98;;;3.60;;
34952;SDS011;21164;54.378;10.202;2022-08-04T16:58:25;8.52;;;3.33;;
34952;SDS011;21164;54.378;10.202;2022-08-04T17:00:54;11.52;;;2.97;;
34952;SDS011;21164;54.378;10.202;2022-08-04T17:03:20;8.00;;;2.85;;
34952;SDS011;21164;54.378;10.202;2022-08-04T17:05:46;12.52;;;3.10;;
34952;SDS011;21164;54.378;10.202;2022-08-04T17:08:12;11.48;;;3.08;;
34952;SDS011;21164;54.378;10.202;2022-08-04T17:10:43;11.60;;;3.75;;
34952;SDS011;21164;54.378;10.202;2022-08-04T17:13:21;10.35;;;3.70;;
34952;SDS011;21164;54.378;10.202;2022-08-04T17:15:54;13.60;;;4.05;;
34952;SDS011;21164;54.378;10.202;2022-08-04T17:18:22;8.68;;;3.47;;
34952;SDS011;21164;54.378;10.202;2022-08-04T17:20:51;12.30;;;4.07;;
34952;SDS011;21164;54.378;10.202;2022-08-04T17:23:22;13.82;;;4.03;;
34952;SDS011;21164;54.378;10.202;2022-08-04T17:26:01;9.43;;;3.85;;
34952;SDS011;21164;54.378;10.202;2022-08-04T17:28:32;20.08;;;5.13;;
34952;SDS011;21164;54.378;10.202;2022-08-04T17:31:01;10.55;;;2.88;;
34952;SDS011;21164;54.378;10.202;2022-08-04T17:33:28;11.23;;;3.13;;
34952;SDS011;21164;54.378;10.202;2022-08-04T17:35:57;7.88;;;3.08;;
34952;SDS011;21164;54.378;10.202;2022-08-04T17:38:28;7.72;;;2.80;;
34952;SDS011;21164;54.378;10.202;2022-08-04T17:41:00;7.72;;;2.70;;
34952;SDS011;21164;54.378;10.202;2022-08-04T17:43:38;10.20;;;3.00;;
34952;SDS011;21164;54.378;10.202;2022-08-04T17:46:32;7.78;;;2.67;;
34952;SDS011;21164;54.378;10.202;2022-08-04T17:56:57;7.90;;;2.70;;
34952;SDS011;21164;54.378;10.202;2022-08-04T17:59:44;6.53;;;2.67;;
34952;SDS011;21164;54.378;10.202;2022-08-04T18:02:11;6.43;;;3.33;;
34952;SDS011;21164;54.378;10.202;2022-08-04T18:07:12;8.13;;;2.88;;
34952;SDS011;21164;54.378;10.202;2022-08-04T18:09:40;6.35;;;2.65;;
34952;SDS011;21164;54.378;10.202;2022-08-04T18:14:37;6.05;;;2.15;;
34952;SDS011;21164;54.378;10.202;2022-08-04T18:17:05;7.97;;;2.70;;
34952;SDS011;21164;54.378;10.202;2022-08-04T18:19:30;5.65;;;2.80;;
34952;SDS011;21164;54.378;10.202;2022-08-04T18:21:56;4.90;;;2.20;;
34952;SDS011;21164;54.378;10.202;2022-08-04T18:24:22;8.32;;;2.60;;
34952;SDS011;21164;54.378;10.202;2022-08-04T18:26:47;6.22;;;2.28;;
34952;SDS011;21164;54.378;10.202;2022-08-04T18:29:13;5.15;;;2.45;;
34952;SDS011;21164;54.378;10.202;2022-08-04T18:31:38;7.22;;;2.17;;
34952;SDS011;21164;54.378;10.202;2022-08-04T18:34:07;5.70;;;2.53;;
34952;SDS011;21164;54.378;10.202;2022-08-04T18:36:33;5.90;;;2.63;;
34952;SDS011;21164;54.378;10.202;2022-08-04T18:39:00;5.97;;;2.22;;
34952;SDS011;21164;54.378;10.202;2022-08-04T18:41:27;8.60;;;2.70;;
34952;SDS011;21164;54.378;10.202;2022-08-04T18:43:54;5.65;;;2.45;;
34952;SDS011;21164;54.378;10.202;2022-08-04T18:46:20;6.60;;;2.55;;
34952;SDS011;21164;54.378;10.202;2022-08-04T18:48:45;7.05;;;3.13;;
34952;SDS011;21164;54.378;10.202;2022-08-04T18:51:11;5.05;;;2.20;;
34952;SDS011;21164;54.378;10.202;2022-08-04T18:53:37;5.43;;;2.60;;
34952;SDS011;21164;54.378;10.202;2022-08-04T18:56:03;11.98;;;3.45;;
34952;SDS011;21164;54.378;10.202;2022-08-04T18:58:29;6.32;;;3.05;;
34952;SDS011;21164;54.378;10.202;2022-08-04T19:00:55;6.80;;;2.80;;
34952;SDS011;21164;54.378;10.202;2022-08-04T19:03:21;7.70;;;2.88;;
34952;SDS011;21164;54.378;10.202;2022-08-04T19:05:46;7.65;;;3.08;;
34952;SDS011;21164;54.378;10.202;2022-08-04T19:10:38;6.63;;;2.53;;
34952;SDS011;21164;54.378;10.202;2022-08-04T19:13:03;6.78;;;2.42;;
34952;SDS011;21164;54.378;10.202;2022-08-04T19:17:55;5.50;;;2.25;;
34952;SDS011;21164;54.378;10.202;2022-08-04T19:20:21;4.93;;;2.60;;
34952;SDS011;21164;54.378;10.202;2022-08-04T19:22:47;3.88;;;2.20;;
34952;SDS011;21164;54.378;10.202;2022-08-04T19:25:12;6.25;;;2.10;;
34952;SDS011;21164;54.378;10.202;2022-08-04T19:30:03;5.40;;;2.50;;
34952;SDS011;21164;54.378;10.202;2022-08-04T19:32:30;6.45;;;2.67;;
34952;SDS011;21164;54.378;10.202;2022-08-04T19:34:55;4.38;;;2.30;;
34952;SDS011;21164;54.378;10.202;2022-08-04T19:37:21;8.43;;;2.40;;
34952;SDS011;21164;54.378;10.202;2022-08-04T19:42:12;4.85;;;2.40;;
34952;SDS011;21164;54.378;10.202;2022-08-04T19:44:38;5.93;;;2.05;;
34952;SDS011;21164;54.378;10.202;2022-08-04T19:49:29;9.00;;;2.55;;
34952;SDS011;21164;54.378;10.202;2022-08-04T19:54:21;7.85;;;2.35;;
34952;SDS011;21164;54.378;10.202;2022-08-04T19:59:12;5.70;;;2.03;;
34952;SDS011;21164;54.378;10.202;2022-08-04T20:04:03;6.40;;;2.38;;
34952;SDS011;21164;54.378;10.202;2022-08-04T20:08:54;4.82;;;2.50;;
34952;SDS011;21164;54.378;10.202;2022-08-04T20:13:46;5.55;;;2.28;;
34952;SDS011;21164;54.378;10.202;2022-08-04T20:18:37;6.35;;;2.45;;
34952;SDS011;21164;54.378;10.202;2022-08-04T20:23:28;7.20;;;2.90;;
34952;SDS011;21164;54.378;10.202;2022-08-04T20:28:20;7.57;;;2.75;;
34952;SDS011;21164;54.378;10.202;2022-08-04T20:30:47;8.95;;;2.95;;
34952;SDS011;21164;54.378;10.202;2022-08-04T20:35:38;10.02;;;3.30;;
34952;SDS011;21164;54.378;10.202;2022-08-04T20:40:29;9.43;;;3.33;;
34952;SDS011;21164;54.378;10.202;2022-08-04T20:45:21;7.82;;;3.75;;
34952;SDS011;21164;54.378;10.202;2022-08-04T20:50:12;7.55;;;3.80;;